sensor_id;sensor_type;location;lat;lon;timestamp;pressure;altitude;pressure_sealevel;temperature;humidity
59104;BME280;51449;51.676;5.812;2023-03-22T00:01:29;100939.38;;;10.67;75.60
59104;BME280;51449;51.676;5.812;2023-03-22T00:03:51;100927.09;;;10.65;75.78
59104;BME280;51449;51.676;5.812;2023-03-22T00:06:14;100928.56;;;10.62;75.83
59104;BME280;51449;51.676;5.812;2023-03-22T00:08:37;100921.63;;;10.56;76.11
59104;BME280;51449;51.676;5.812;2023-03-22T00:10:59;100923.09;;;10.54;76.42
59104;BME280;51449;51.676;5.812;2023-03-22T00:13:21;100930.88;;;10.52;76.62
59104;BME280;51449;51.676;5.812;2023-03-22T00:15:43;100916.63;;;10.49;76.74
59104;BME280;51449;51.676;5.812;2023-03-22T00:18:06;100925.22;;;10.48;77.31
59104;BME280;51449;51.676;5.812;2023-03-22T00:20:28;100921.97;;;10.46;77.02
59104;BME280;51449;51.676;5.812;2023-03-22T00:22:56;100918.28;;;10.42;77.45
59104;BME280;51449;51.676;5.812;2023-03-22T00:25:18;100910.69;;;10.39;76.94
59104;BME280;51449;51.676;5.812;2023-03-22T00:27:41;100909.84;;;10.38;77.23
59104;BME280;51449;51.676;5.812;2023-03-22T00:30:04;100905.03;;;10.35;77.38
59104;BME280;51449;51.676;5.812;2023-03-22T00:32:26;100900.50;;;10.31;77.25
59104;BME280;51449;51.676;5.812;2023-03-22T00:34:48;100894.19;;;10.30;77.60
59104;BME280;51449;51.676;5.812;2023-03-22T00:37:10;100896.13;;;10.30;77.31
59104;BME280;51449;51.676;5.812;2023-03-22T00:39:31;100895.16;;;10.25;77.62
59104;BME280;51449;51.676;5.812;2023-03-22T00:41:53;100896.63;;;10.23;77.48
59104;BME280;51449;51.676;5.812;2023-03-22T00:44:15;100887.88;;;10.21;77.47
59104;BME280;51449;51.676;5.812;2023-03-22T00:46:38;100885.59;;;10.23;77.53
59104;BME280;51449;51.676;5.812;2023-03-22T00:49:00;100878.81;;;10.20;77.19
59104;BME280;51449;51.676;5.812;2023-03-22T00:51:22;100877.22;;;10.19;77.18
59104;BME280;51449;51.676;5.812;2023-03-22T00:53:44;100865.72;;;10.17;76.52
59104;BME280;51449;51.676;5.812;2023-03-22T00:56:11;100869.09;;;10.14;76.77
59104;BME280;51449;51.676;5.812;2023-03-22T00:58:51;100865.41;;;10.10;76.62
59104;BME280;51449;51.676;5.812;2023-03-22T01:01:13;100857.78;;;10.07;76.62
59104;BME280;51449;51.676;5.812;2023-03-22T01:03:35;100864.75;;;10.04;76.28
59104;BME280;51449;51.676;5.812;2023-03-22T01:05:59;100857.97;;;10.02;76.24
59104;BME280;51449;51.676;5.812;2023-03-22T01:08:22;100857.53;;;10.00;76.44
59104;BME280;51449;51.676;5.812;2023-03-22T01:10:44;100853.81;;;9.96;76.30
59104;BME280;51449;51.676;5.812;2023-03-22T01:13:07;100844.75;;;9.95;76.36
59104;BME280;51449;51.676;5.812;2023-03-22T01:15:29;100835.19;;;9.93;76.56
59104;BME280;51449;51.676;5.812;2023-03-22T01:17:51;100835.50;;;9.91;76.91
59104;BME280;51449;51.676;5.812;2023-03-22T01:20:13;100833.56;;;9.92;76.71
59104;BME280;51449;51.676;5.812;2023-03-22T01:22:36;100837.94;;;9.93;77.03
59104;BME280;51449;51.676;5.812;2023-03-22T01:24:59;100835.19;;;9.93;77.26
59104;BME280;51449;51.676;5.812;2023-03-22T01:27:20;100830.81;;;9.92;77.46
59104;BME280;51449;51.676;5.812;2023-03-22T01:29:42;100831.97;;;9.91;77.80
59104;BME280;51449;51.676;5.812;2023-03-22T01:32:04;100824.50;;;9.91;77.81
59104;BME280;51449;51.676;5.812;2023-03-22T01:34:26;100813.19;;;9.93;77.60
59104;BME280;51449;51.676;5.812;2023-03-22T01:36:49;100809.28;;;9.94;78.08
59104;BME280;51449;51.676;5.812;2023-03-22T01:39:11;100809.44;;;9.97;77.85
59104;BME280;51449;51.676;5.812;2023-03-22T01:41:35;100796.13;;;9.99;77.66
59104;BME280;51449;51.676;5.812;2023-03-22T01:44:07;100784.81;;;10.01;77.70
59104;BME280;51449;51.676;5.812;2023-03-22T01:46:33;100784.81;;;10.01;77.26
59104;BME280;51449;51.676;5.812;2023-03-22T01:48:55;100782.53;;;10.03;77.43
59104;BME280;51449;51.676;5.812;2023-03-22T01:51:21;100774.75;;;10.05;77.63
59104;BME280;51449;51.676;5.812;2023-03-22T01:54:09;100759.84;;;10.06;77.85
59104;BME280;51449;51.676;5.812;2023-03-22T01:56:39;100767.44;;;10.09;78.32
59104;BME280;51449;51.676;5.812;2023-03-22T01:59:09;100756.91;;;10.11;78.18
59104;BME280;51449;51.676;5.812;2023-03-22T02:01:52;100752.47;;;10.19;78.42
59104;BME280;51449;51.676;5.812;2023-03-22T02:04:19;100753.91;;;10.25;78.38
59104;BME280;51449;51.676;5.812;2023-03-22T02:06:43;100741.13;;;10.29;78.66
59104;BME280;51449;51.676;5.812;2023-03-22T02:09:11;100750.00;;;10.35;78.42
59104;BME280;51449;51.676;5.812;2023-03-22T02:11:40;100737.03;;;10.35;78.55
59104;BME280;51449;51.676;5.812;2023-03-22T02:14:33;100732.47;;;10.39;78.77
59104;BME280;51449;51.676;5.812;2023-03-22T02:27:22;100719.44;;;10.48;81.03
59104;BME280;51449;51.676;5.812;2023-03-22T02:33:25;100714.53;;;10.54;81.94
59104;BME280;51449;51.676;5.812;2023-03-22T02:36:22;100718.41;;;10.53;82.30
59104;BME280;51449;51.676;5.812;2023-03-22T02:41:45;100717.56;;;10.61;82.48
59104;BME280;51449;51.676;5.812;2023-03-22T02:44:21;100702.31;;;10.64;82.19
59104;BME280;51449;51.676;5.812;2023-03-22T02:47:46;100703.91;;;10.65;82.08
59104;BME280;51449;51.676;5.812;2023-03-22T02:50:06;100707.44;;;10.65;82.00
59104;BME280;51449;51.676;5.812;2023-03-22T02:52:42;100706.31;;;10.66;81.95
59104;BME280;51449;51.676;5.812;2023-03-22T02:58:13;100695.31;;;10.66;82.01
59104;BME280;51449;51.676;5.812;2023-03-22T03:00:40;100705.53;;;10.66;81.92
59104;BME280;51449;51.676;5.812;2023-03-22T03:03:07;100704.03;;;10.68;81.94
59104;BME280;51449;51.676;5.812;2023-03-22T03:05:33;100697.38;;;10.69;81.98
59104;BME280;51449;51.676;5.812;2023-03-22T03:07:58;100694.31;;;10.71;81.87
59104;BME280;51449;51.676;5.812;2023-03-22T03:10:25;100693.13;;;10.72;81.57
59104;BME280;51449;51.676;5.812;2023-03-22T03:12:48;100695.09;;;10.71;81.66
59104;BME280;51449;51.676;5.812;2023-03-22T03:15:15;100684.06;;;10.71;81.48
59104;BME280;51449;51.676;5.812;2023-03-22T03:17:49;100682.47;;;10.70;81.90
59104;BME280;51449;51.676;5.812;2023-03-22T03:20:55;100673.84;;;10.72;81.98
59104;BME280;51449;51.676;5.812;2023-03-22T03:28:51;100683.06;;;10.76;81.32
59104;BME280;51449;51.676;5.812;2023-03-22T03:31:38;100679.94;;;10.78;81.65
59104;BME280;51449;51.676;5.812;2023-03-22T03:34:12;100678.81;;;10.79;81.41
59104;BME280;51449;51.676;5.812;2023-03-22T03:36:45;100676.75;;;10.76;81.50
59104;BME280;51449;51.676;5.812;2023-03-22T03:39:14;100670.78;;;10.74;81.22
59104;BME280;51449;51.676;5.812;2023-03-22T03:41:39;100674.66;;;10.73;81.40
59104;BME280;51449;51.676;5.812;2023-03-22T03:44:04;100677.09;;;10.74;81.04
59104;BME280;51449;51.676;5.812;2023-03-22T03:46:27;100661.81;;;10.77;81.02
59104;BME280;51449;51.676;5.812;2023-03-22T03:48:51;100673.16;;;10.75;81.09
59104;BME280;51449;51.676;5.812;2023-03-22T03:51:15;100671.69;;;10.78;80.66
59104;BME280;51449;51.676;5.812;2023-03-22T03:53:37;100677.19;;;10.78;80.67
59104;BME280;51449;51.676;5.812;2023-03-22T03:55:59;100671.25;;;10.76;80.83
59104;BME280;51449;51.676;5.812;2023-03-22T03:58:28;100674.00;;;10.76;80.88
59104;BME280;51449;51.676;5.812;2023-03-22T04:00:51;100674.00;;;10.76;80.67
59104;BME280;51449;51.676;5.812;2023-03-22T04:03:24;100678.34;;;10.77;80.39
59104;BME280;51449;51.676;5.812;2023-03-22T04:06:18;100674.81;;;10.76;80.60
59104;BME280;51449;51.676;5.812;2023-03-22T04:08:45;100678.34;;;10.77;80.32
59104;BME280;51449;51.676;5.812;2023-03-22T04:11:16;100671.91;;;10.73;80.51
59104;BME280;51449;51.676;5.812;2023-03-22T04:13:41;100679.25;;;10.68;80.38
59104;BME280;51449;51.676;5.812;2023-03-22T04:16:08;100684.28;;;10.66;80.20
59104;BME280;51449;51.676;5.812;2023-03-22T04:18:31;100686.25;;;10.66;80.17
59104;BME280;51449;51.676;5.812;2023-03-22T04:20:56;100682.53;;;10.62;80.27
59104;BME280;51449;51.676;5.812;2023-03-22T04:23:20;100668.63;;;10.58;80.10
59104;BME280;51449;51.676;5.812;2023-03-22T04:25:44;100669.44;;;10.59;80.19
59104;BME280;51449;51.676;5.812;2023-03-22T04:28:16;100667.34;;;10.56;80.15
59104;BME280;51449;51.676;5.812;2023-03-22T04:30:41;100659.09;;;10.56;80.07
59104;BME280;51449;51.676;5.812;2023-03-22T04:33:24;100656.22;;;10.52;80.36
59104;BME280;51449;51.676;5.812;2023-03-22T04:36:10;100653.78;;;10.50;80.16
59104;BME280;51449;51.676;5.812;2023-03-22T04:38:50;100649.63;;;10.44;80.34
59104;BME280;51449;51.676;5.812;2023-03-22T04:41:16;100652.72;;;10.43;80.32
59104;BME280;51449;51.676;5.812;2023-03-22T04:43:42;100651.13;;;10.42;80.66
59104;BME280;51449;51.676;5.812;2023-03-22T04:46:09;100658.91;;;10.40;80.36
59104;BME280;51449;51.676;5.812;2023-03-22T04:48:40;100637.34;;;10.42;80.58
59104;BME280;51449;51.676;5.812;2023-03-22T04:51:05;100647.09;;;10.39;80.62
59104;BME280;51449;51.676;5.812;2023-03-22T04:53:34;100645.00;;;10.36;80.71
59104;BME280;51449;51.676;5.812;2023-03-22T04:56:00;100640.63;;;10.35;80.68
59104;BME280;51449;51.676;5.812;2023-03-22T04:58:25;100637.41;;;10.33;80.79
59104;BME280;51449;51.676;5.812;2023-03-22T05:00:47;100640.53;;;10.32;80.55
59104;BME280;51449;51.676;5.812;2023-03-22T05:03:08;100645.66;;;10.33;80.46
59104;BME280;51449;51.676;5.812;2023-03-22T05:05:34;100640.53;;;10.32;80.53
59104;BME280;51449;51.676;5.812;2023-03-22T05:07:57;100636.28;;;10.34;80.41
59104;BME280;51449;51.676;5.812;2023-03-22T05:10:19;100637.41;;;10.33;80.56
59104;BME280;51449;51.676;5.812;2023-03-22T05:12:41;100636.59;;;10.33;80.40
59104;BME280;51449;51.676;5.812;2023-03-22T05:15:17;100640.53;;;10.32;80.55
59104;BME280;51449;51.676;5.812;2023-03-22T05:17:41;100641.31;;;10.32;80.49
59104;BME280;51449;51.676;5.812;2023-03-22T05:20:04;100635.34;;;10.30;80.64
59104;BME280;51449;51.676;5.812;2023-03-22T05:22:32;100636.59;;;10.33;80.36
59104;BME280;51449;51.676;5.812;2023-03-22T05:24:55;100633.06;;;10.32;80.40
59104;BME280;51449;51.676;5.812;2023-03-22T05:27:19;100630.63;;;10.31;80.44
59104;BME280;51449;51.676;5.812;2023-03-22T05:30:03;100629.94;;;10.34;80.44
59104;BME280;51449;51.676;5.812;2023-03-22T05:32:40;100633.66;;;10.38;80.26
59104;BME280;51449;51.676;5.812;2023-03-22T05:35:05;100627.81;;;10.39;80.15
59104;BME280;51449;51.676;5.812;2023-03-22T05:37:31;100635.59;;;10.37;80.26
59104;BME280;51449;51.676;5.812;2023-03-22T05:39:54;100632.06;;;10.37;80.03
59104;BME280;51449;51.676;5.812;2023-03-22T05:42:24;100630.09;;;10.37;79.61
59104;BME280;51449;51.676;5.812;2023-03-22T05:44:46;100627.66;;;10.36;79.84
59104;BME280;51449;51.676;5.812;2023-03-22T05:47:08;100629.63;;;10.35;79.67
59104;BME280;51449;51.676;5.812;2023-03-22T05:49:34;100639.63;;;10.40;79.45
59104;BME280;51449;51.676;5.812;2023-03-22T05:51:56;100634.13;;;10.40;79.04
59104;BME280;51449;51.676;5.812;2023-03-22T05:54:27;100633.66;;;10.38;79.38
59104;BME280;51449;51.676;5.812;2023-03-22T05:56:49;100626.19;;;10.38;79.18
59104;BME280;51449;51.676;5.812;2023-03-22T05:59:15;100622.78;;;10.41;78.93
59104;BME280;51449;51.676;5.812;2023-03-22T06:01:37;100624.38;;;10.42;78.98
59104;BME280;51449;51.676;5.812;2023-03-22T06:04:06;100625.66;;;10.45;78.40
59104;BME280;51449;51.676;5.812;2023-03-22T06:06:40;100627.59;;;10.44;78.43
59104;BME280;51449;51.676;5.812;2023-03-22T06:09:07;100629.56;;;10.44;78.63
59104;BME280;51449;51.676;5.812;2023-03-22T06:11:39;100633.13;;;10.44;78.17
59104;BME280;51449;51.676;5.812;2023-03-22T06:14:01;100625.66;;;10.45;78.31
59104;BME280;51449;51.676;5.812;2023-03-22T06:16:37;100627.47;;;10.41;78.24
59104;BME280;51449;51.676;5.812;2023-03-22T06:18:59;100627.59;;;10.44;78.21
59104;BME280;51449;51.676;5.812;2023-03-22T06:21:21;100627.72;;;10.48;78.28
59104;BME280;51449;51.676;5.812;2023-03-22T06:23:42;100633.22;;;10.48;78.36
59104;BME280;51449;51.676;5.812;2023-03-22T06:26:05;100629.34;;;10.49;78.29
59104;BME280;51449;51.676;5.812;2023-03-22T06:28:29;100625.91;;;10.52;78.32
59104;BME280;51449;51.676;5.812;2023-03-22T06:30:52;100621.19;;;10.53;78.18
59104;BME280;51449;51.676;5.812;2023-03-22T06:33:22;100630.72;;;10.55;78.08
59104;BME280;51449;51.676;5.812;2023-03-22T06:35:49;100614.69;;;10.57;78.01
59104;BME280;51449;51.676;5.812;2023-03-22T06:38:20;100621.47;;;10.60;78.16
59104;BME280;51449;51.676;5.812;2023-03-22T06:40:42;100619.66;;;10.64;78.31
59104;BME280;51449;51.676;5.812;2023-03-22T06:43:04;100616.13;;;10.76;77.86
59104;BME280;51449;51.676;5.812;2023-03-22T06:45:30;100606.50;;;10.94;77.61
59104;BME280;51449;51.676;5.812;2023-03-22T06:47:55;100615.66;;;11.31;76.43
59104;BME280;51449;51.676;5.812;2023-03-22T06:50:27;100611.84;;;11.73;74.46
59104;BME280;51449;51.676;5.812;2023-03-22T06:52:57;100623.34;;;11.87;73.92
59104;BME280;51449;51.676;5.812;2023-03-22T06:55:19;100622.75;;;11.82;73.73
59104;BME280;51449;51.676;5.812;2023-03-22T06:57:41;100621.41;;;11.75;74.36
59104;BME280;51449;51.676;5.812;2023-03-22T07:00:03;100616.44;;;11.56;74.22
59104;BME280;51449;51.676;5.812;2023-03-22T07:02:27;100624.03;;;11.47;74.71
59104;BME280;51449;51.676;5.812;2023-03-22T07:05:09;100625.19;;;11.34;75.13
59104;BME280;51449;51.676;5.812;2023-03-22T07:07:31;100629.09;;;11.33;75.67
59104;BME280;51449;51.676;5.812;2023-03-22T07:09:53;100626.00;;;11.34;75.84
59104;BME280;51449;51.676;5.812;2023-03-22T07:12:14;100617.03;;;11.38;76.05
59104;BME280;51449;51.676;5.812;2023-03-22T07:14:37;100618.41;;;11.44;76.06
59104;BME280;51449;51.676;5.812;2023-03-22T07:17:15;100622.88;;;11.48;75.84
59104;BME280;51449;51.676;5.812;2023-03-22T07:19:37;100614.81;;;11.55;75.87
59104;BME280;51449;51.676;5.812;2023-03-22T07:22:02;100624.03;;;11.60;75.55
59104;BME280;51449;51.676;5.812;2023-03-22T07:24:26;100612.88;;;11.68;75.33
59104;BME280;51449;51.676;5.812;2023-03-22T07:26:47;100611.63;;;11.78;75.65
59104;BME280;51449;51.676;5.812;2023-03-22T07:29:13;100613.44;;;11.86;75.05
59104;BME280;51449;51.676;5.812;2023-03-22T07:31:35;100610.78;;;11.90;74.29
59104;BME280;51449;51.676;5.812;2023-03-22T07:34:02;100611.72;;;11.94;74.16
59104;BME280;51449;51.676;5.812;2023-03-22T07:36:30;100620.00;;;11.94;73.03
59104;BME280;51449;51.676;5.812;2023-03-22T07:38:52;100623.81;;;11.89;73.04
59104;BME280;51449;51.676;5.812;2023-03-22T07:41:24;100629.19;;;11.86;73.49
59104;BME280;51449;51.676;5.812;2023-03-22T07:44:04;100624.00;;;11.84;73.02
59104;BME280;51449;51.676;5.812;2023-03-22T07:47:00;100628.19;;;11.78;73.08
59104;BME280;51449;51.676;5.812;2023-03-22T07:49:38;100635.75;;;11.81;73.32
59104;BME280;51449;51.676;5.812;2023-03-22T07:52:12;100639.78;;;11.84;73.17
59104;BME280;51449;51.676;5.812;2023-03-22T07:54:35;100632.44;;;11.88;73.56
59104;BME280;51449;51.676;5.812;2023-03-22T07:57:00;100638.06;;;11.91;73.16
59104;BME280;51449;51.676;5.812;2023-03-22T07:59:22;100635.44;;;11.95;72.76
59104;BME280;51449;51.676;5.812;2023-03-22T08:01:44;100636.78;;;12.01;72.58
59104;BME280;51449;51.676;5.812;2023-03-22T08:04:16;100632.06;;;12.02;72.68
59104;BME280;51449;51.676;5.812;2023-03-22T08:06:47;100626.75;;;12.09;72.62
59104;BME280;51449;51.676;5.812;2023-03-22T08:09:10;100629.50;;;12.09;72.59
59104;BME280;51449;51.676;5.812;2023-03-22T08:11:32;100626.06;;;12.12;72.38
59104;BME280;51449;51.676;5.812;2023-03-22T08:13:53;100630.28;;;12.21;72.15
59104;BME280;51449;51.676;5.812;2023-03-22T08:16:16;100636.84;;;12.29;72.11
59104;BME280;51449;51.676;5.812;2023-03-22T08:18:38;100626.59;;;12.30;71.58
59104;BME280;51449;51.676;5.812;2023-03-22T08:21:00;100626.34;;;12.35;71.79
59104;BME280;51449;51.676;5.812;2023-03-22T08:23:26;100628.06;;;12.39;71.52
59104;BME280;51449;51.676;5.812;2023-03-22T08:26:20;100635.44;;;12.35;70.19
59104;BME280;51449;51.676;5.812;2023-03-22T08:28:45;100644.97;;;12.38;70.61
59104;BME280;51449;51.676;5.812;2023-03-22T08:31:11;100643.59;;;12.44;70.77
59104;BME280;51449;51.676;5.812;2023-03-22T08:33:37;100643.34;;;12.49;70.45
59104;BME280;51449;51.676;5.812;2023-03-22T08:36:06;100636.63;;;12.50;68.95
59104;BME280;51449;51.676;5.812;2023-03-22T08:38:39;100641.22;;;12.58;69.77
59104;BME280;51449;51.676;5.812;2023-03-22T08:41:03;100635.19;;;12.69;69.72
59104;BME280;51449;51.676;5.812;2023-03-22T08:43:25;100642.16;;;12.78;69.47
59104;BME280;51449;51.676;5.812;2023-03-22T08:45:47;100629.78;;;12.88;68.42
59104;BME280;51449;51.676;5.812;2023-03-22T08:48:13;100625.06;;;12.89;67.86
59104;BME280;51449;51.676;5.812;2023-03-22T08:50:56;100601.44;;;12.91;67.35
59104;BME280;51449;51.676;5.812;2023-03-22T08:53:28;100613.75;;;12.94;67.06
59104;BME280;51449;51.676;5.812;2023-03-22T08:56:06;100612.41;;;13.03;67.39
59104;BME280;51449;51.676;5.812;2023-03-22T08:58:38;100612.25;;;13.12;66.85
59104;BME280;51449;51.676;5.812;2023-03-22T09:01:13;100600.00;;;13.13;66.61
59104;BME280;51449;51.676;5.812;2023-03-22T09:03:42;100601.25;;;13.16;66.64
59104;BME280;51449;51.676;5.812;2023-03-22T09:06:04;100595.91;;;13.23;66.33
59104;BME280;51449;51.676;5.812;2023-03-22T09:08:32;100607.97;;;13.31;66.64
59104;BME280;51449;51.676;5.812;2023-03-22T09:11:00;100606.56;;;13.37;66.10
59104;BME280;51449;51.676;5.812;2023-03-22T09:13:23;100612.28;;;13.44;65.49
59104;BME280;51449;51.676;5.812;2023-03-22T09:15:52;100606.47;;;13.49;65.03
59104;BME280;51449;51.676;5.812;2023-03-22T09:18:18;100599.31;;;13.48;64.50
59104;BME280;51449;51.676;5.812;2023-03-22T09:20:40;100591.00;;;13.48;64.50
59104;BME280;51449;51.676;5.812;2023-03-22T09:23:02;100587.53;;;13.51;64.09
59104;BME280;51449;51.676;5.812;2023-03-22T09:25:24;100595.13;;;13.54;64.32
59104;BME280;51449;51.676;5.812;2023-03-22T09:27:46;100587.78;;;13.62;64.17
59104;BME280;51449;51.676;5.812;2023-03-22T09:30:09;100590.59;;;13.65;64.18
59104;BME280;51449;51.676;5.812;2023-03-22T09:32:31;100577.22;;;13.67;63.61
59104;BME280;51449;51.676;5.812;2023-03-22T09:34:56;100583.56;;;13.68;63.67
59104;BME280;51449;51.676;5.812;2023-03-22T09:37:30;100594.78;;;13.75;63.24
59104;BME280;51449;51.676;5.812;2023-03-22T09:39:53;100582.34;;;13.85;63.16
59104;BME280;51449;51.676;5.812;2023-03-22T09:42:24;100575.72;;;13.89;62.62
59104;BME280;51449;51.676;5.812;2023-03-22T09:45:04;100585.72;;;13.94;62.54
59104;BME280;51449;51.676;5.812;2023-03-22T09:47:37;100578.59;;;13.93;62.19
59104;BME280;51449;51.676;5.812;2023-03-22T09:50:14;100586.91;;;13.93;61.83
59104;BME280;51449;51.676;5.812;2023-03-22T09:52:42;100577.69;;;13.89;62.17
59104;BME280;51449;51.676;5.812;2023-03-22T09:55:10;100584.75;;;13.86;62.28
59104;BME280;51449;51.676;5.812;2023-03-22T09:57:43;100575.56;;;13.82;62.45
59104;BME280;51449;51.676;5.812;2023-03-22T10:00:30;100586.22;;;13.80;62.56
59104;BME280;51449;51.676;5.812;2023-03-22T10:03:18;100581.47;;;13.81;62.61
59104;BME280;51449;51.676;5.812;2023-03-22T10:06:11;100583.81;;;13.79;62.70
59104;BME280;51449;51.676;5.812;2023-03-22T10:11:48;100589.19;;;13.72;61.99
59104;BME280;51449;51.676;5.812;2023-03-22T10:15:02;100583.13;;;13.66;61.85
59104;BME280;51449;51.676;5.812;2023-03-22T10:17:07;100584.22;;;13.61;61.91
59104;BME280;51449;51.676;5.812;2023-03-22T10:22:44;100577.44;;;13.59;62.22
59104;BME280;51449;51.676;5.812;2023-03-22T10:25:08;100581.00;;;13.59;62.61
59104;BME280;51449;51.676;5.812;2023-03-22T10:27:30;100577.44;;;13.59;62.25
59104;BME280;51449;51.676;5.812;2023-03-22T10:29:58;100569.81;;;13.56;62.22
59104;BME280;51449;51.676;5.812;2023-03-22T10:32:33;100574.94;;;13.54;62.15
59104;BME280;51449;51.676;5.812;2023-03-22T10:35:18;100578.78;;;13.49;62.52
59104;BME280;51449;51.676;5.812;2023-03-22T10:37:41;100568.78;;;13.44;62.30
59104;BME280;51449;51.676;5.812;2023-03-22T10:40:06;100584.16;;;13.42;62.38
59104;BME280;51449;51.676;5.812;2023-03-22T10:42:38;100583.69;;;13.40;63.57
59104;BME280;51449;51.676;5.812;2023-03-22T10:45:14;100587.72;;;13.26;63.61
59104;BME280;51449;51.676;5.812;2023-03-22T10:47:44;100597.69;;;13.15;64.43
59104;BME280;51449;51.676;5.812;2023-03-22T10:50:21;100599.03;;;13.05;65.27
59104;BME280;51449;51.676;5.812;2023-03-22T10:53:03;100605.44;;;12.94;66.22
59104;BME280;51449;51.676;5.812;2023-03-22T10:55:41;100596.50;;;12.84;67.24
59104;BME280;51449;51.676;5.812;2023-03-22T10:58:14;100599.97;;;12.81;67.62
59104;BME280;51449;51.676;5.812;2023-03-22T11:00:43;100601.84;;;12.77;67.77
59104;BME280;51449;51.676;5.812;2023-03-22T11:03:24;100606.22;;;12.78;68.17
59104;BME280;51449;51.676;5.812;2023-03-22T11:13:59;100604.19;;;12.91;69.62
59104;BME280;51449;51.676;5.812;2023-03-22T11:16:25;100606.34;;;12.98;69.80
59104;BME280;51449;51.676;5.812;2023-03-22T11:18:49;100599.75;;;13.02;70.38
59104;BME280;51449;51.676;5.812;2023-03-22T11:21:11;100607.69;;;13.04;70.18
59104;BME280;51449;51.676;5.812;2023-03-22T11:23:39;100604.91;;;13.04;69.79
59104;BME280;51449;51.676;5.812;2023-03-22T11:26:11;100608.06;;;13.02;69.92
59104;BME280;51449;51.676;5.812;2023-03-22T11:28:39;100599.38;;;13.04;70.09
59104;BME280;51449;51.676;5.812;2023-03-22T11:31:09;100603.75;;;13.05;70.95
59104;BME280;51449;51.676;5.812;2023-03-22T11:33:34;100607.34;;;13.05;70.78
59104;BME280;51449;51.676;5.812;2023-03-22T11:36:00;100597.78;;;13.03;70.92
59104;BME280;51449;51.676;5.812;2023-03-22T11:41:30;100594.84;;;12.96;71.18
59104;BME280;51449;51.676;5.812;2023-03-22T11:44:04;100587.94;;;12.90;70.97
59104;BME280;51449;51.676;5.812;2023-03-22T11:46:30;100594.91;;;12.83;70.65
59104;BME280;51449;51.676;5.812;2023-03-22T11:49:06;100601.94;;;12.81;71.44
59104;BME280;51449;51.676;5.812;2023-03-22T11:51:36;100588.13;;;12.81;71.80
59104;BME280;51449;51.676;5.812;2023-03-22T11:54:09;100591.88;;;12.89;71.71
59104;BME280;51449;51.676;5.812;2023-03-22T11:56:43;100597.59;;;12.96;71.26
59104;BME280;51449;51.676;5.812;2023-03-22T11:59:14;100600.38;;;12.96;71.18
59104;BME280;51449;51.676;5.812;2023-03-22T12:01:49;100610.38;;;13.00;71.52
59104;BME280;51449;51.676;5.812;2023-03-22T12:04:22;100591.09;;;13.04;71.18
59104;BME280;51449;51.676;5.812;2023-03-22T12:06:54;100587.16;;;13.05;70.64
59104;BME280;51449;51.676;5.812;2023-03-22T12:12:03;100594.56;;;13.01;70.86
59104;BME280;51449;51.676;5.812;2023-03-22T12:14:43;100589.38;;;12.99;70.71
59104;BME280;51449;51.676;5.812;2023-03-22T12:17:19;100576.00;;;13.01;71.08
59104;BME280;51449;51.676;5.812;2023-03-22T12:19:55;100573.78;;;13.07;70.71
59104;BME280;51449;51.676;5.812;2023-03-22T12:22:35;100579.31;;;13.07;71.38
59104;BME280;51449;51.676;5.812;2023-03-22T12:25:02;100564.22;;;13.04;70.13
59104;BME280;51449;51.676;5.812;2023-03-22T12:27:32;100562.56;;;13.00;69.71
59104;BME280;51449;51.676;5.812;2023-03-22T12:29:59;100558.63;;;13.01;70.14
59104;BME280;51449;51.676;5.812;2023-03-22T12:32:28;100563.88;;;13.06;70.30
59104;BME280;51449;51.676;5.812;2023-03-22T12:34:54;100559.50;;;13.05;69.72
59104;BME280;51449;51.676;5.812;2023-03-22T12:37:38;100567.09;;;13.08;69.50
59104;BME280;51449;51.676;5.812;2023-03-22T12:40:13;100570.75;;;13.12;69.75
59104;BME280;51449;51.676;5.812;2023-03-22T12:43:04;100567.34;;;13.19;70.03
59104;BME280;51449;51.676;5.812;2023-03-22T12:45:40;100570.75;;;13.12;69.36
59104;BME280;51449;51.676;5.812;2023-03-22T12:48:19;100566.75;;;13.10;69.47
59104;BME280;51449;51.676;5.812;2023-03-22T12:51:10;100569.50;;;13.10;69.40
59104;BME280;51449;51.676;5.812;2023-03-22T12:53:43;100573.88;;;13.11;69.31
59104;BME280;51449;51.676;5.812;2023-03-22T12:56:10;100571.44;;;13.09;69.38
59104;BME280;51449;51.676;5.812;2023-03-22T12:58:34;100571.91;;;13.11;69.21
59104;BME280;51449;51.676;5.812;2023-03-22T13:01:31;100575.84;;;13.10;68.95
59104;BME280;51449;51.676;5.812;2023-03-22T13:22:57;100568.69;;;13.09;69.07
59104;BME280;51449;51.676;5.812;2023-03-22T13:27:51;100561.22;;;13.10;69.19
59104;BME280;51449;51.676;5.812;2023-03-22T13:32:50;100565.56;;;13.11;68.87
59104;BME280;51449;51.676;5.812;2023-03-22T13:35:43;100560.94;;;13.15;68.55
59104;BME280;51449;51.676;5.812;2023-03-22T13:38:16;100560.13;;;13.14;68.35
59104;BME280;51449;51.676;5.812;2023-03-22T13:41:06;100560.84;;;13.11;68.63
59104;BME280;51449;51.676;5.812;2023-03-22T13:53:55;100570.31;;;13.10;68.73
59104;BME280;51449;51.676;5.812;2023-03-22T13:59:12;100563.34;;;13.16;68.56
59104;BME280;51449;51.676;5.812;2023-03-22T14:01:47;100565.41;;;13.19;68.17
59104;BME280;51449;51.676;5.812;2023-03-22T14:04:15;100566.53;;;13.18;68.29
59104;BME280;51449;51.676;5.812;2023-03-22T14:06:50;100562.97;;;13.18;68.32
59104;BME280;51449;51.676;5.812;2023-03-22T14:09:24;100557.91;;;13.20;68.39
59104;BME280;51449;51.676;5.812;2023-03-22T14:12:06;100557.53;;;13.21;68.31
59104;BME280;51449;51.676;5.812;2023-03-22T14:14:45;100555.22;;;13.23;68.40
59104;BME280;51449;51.676;5.812;2023-03-22T14:20:40;100551.66;;;13.23;67.98
59104;BME280;51449;51.676;5.812;2023-03-22T14:23:10;100552.38;;;13.20;68.27
59104;BME280;51449;51.676;5.812;2023-03-22T14:25:34;100547.28;;;13.22;68.55